createdAt,value
2018-06-10T00:00:11.203Z,0
2018-06-10T00:00:51.714Z,0
2018-06-10T00:01:32.186Z,0
2018-06-10T00:02:12.632Z,0
2018-06-10T00:02:53.182Z,0
2018-06-10T00:03:33.670Z,0
2018-06-10T00:04:14.177Z,0
2018-06-10T00:04:54.657Z,0
2018-06-10T00:05:35.143Z,0
2018-06-10T00:06:15.628Z,0
2018-06-10T00:06:56.131Z,0
2018-06-10T00:07:36.827Z,0
2018-06-10T00:08:17.312Z,0
2018-06-10T00:08:57.807Z,0
2018-06-10T00:09:38.295Z,0
2018-06-10T00:10:18.773Z,0
2018-06-10T00:10:59.227Z,0
2018-06-10T00:11:39.757Z,0
2018-06-10T00:12:20.264Z,0
2018-06-10T00:13:00.731Z,0
2018-06-10T00:13:41.228Z,0
2018-06-10T00:14:21.981Z,0
2018-06-10T00:15:02.480Z,0
2018-06-10T00:15:42.992Z,0
2018-06-10T00:16:23.520Z,0
2018-06-10T00:17:04.021Z,0
2018-06-10T00:17:44.510Z,0
2018-06-10T00:18:24.970Z,0
2018-06-10T00:19:05.451Z,0
2018-06-10T00:19:45.994Z,0
2018-06-10T00:20:26.478Z,0
2018-06-10T00:21:06.994Z,0
2018-06-10T00:21:47.520Z,0
2018-06-10T00:22:28.000Z,0
2018-06-10T00:23:08.466Z,0
2018-06-10T00:23:48.977Z,0
2018-06-10T00:24:29.466Z,0
2018-06-10T00:25:10.257Z,0
2018-06-10T00:25:50.776Z,0
2018-06-10T00:26:31.292Z,0
2018-06-10T00:27:11.775Z,0
2018-06-10T00:27:52.269Z,0
2018-06-10T00:28:32.740Z,0
2018-06-10T00:29:13.249Z,0
2018-06-10T00:29:53.707Z,0
2018-06-10T00:30:34.215Z,0
2018-06-10T00:31:14.752Z,0
2018-06-10T00:31:55.220Z,0
2018-06-10T00:32:35.735Z,0
2018-06-10T00:33:16.249Z,0
2018-06-10T00:33:56.737Z,0
2018-06-10T00:34:37.211Z,0
2018-06-10T00:35:17.706Z,0
2018-06-10T00:35:58.201Z,0
2018-06-10T00:36:38.774Z,0
2018-06-10T00:37:19.222Z,0
2018-06-10T00:37:59.832Z,0
2018-06-10T00:38:40.321Z,0
2018-06-10T00:39:20.924Z,0
2018-06-10T00:40:01.420Z,0
2018-06-10T00:40:41.872Z,0
2018-06-10T00:41:22.382Z,0
2018-06-10T00:42:02.884Z,0
2018-06-10T00:42:43.359Z,0
2018-06-10T00:43:23.849Z,0
2018-06-10T00:44:04.361Z,0
2018-06-10T00:44:44.864Z,0
2018-06-10T00:45:25.362Z,0
2018-06-10T00:46:05.842Z,0
2018-06-10T00:46:46.391Z,0
2018-06-10T00:47:26.945Z,0
2018-06-10T00:48:07.395Z,0
2018-06-10T00:48:47.921Z,0
2018-06-10T00:49:28.427Z,0
2018-06-10T00:50:08.928Z,0
2018-06-10T00:50:49.445Z,0
2018-06-10T00:51:29.887Z,0
2018-06-10T00:52:10.411Z,0
2018-06-10T00:52:50.893Z,0
2018-06-10T00:53:31.392Z,0
2018-06-10T00:54:11.905Z,0
2018-06-10T00:54:52.464Z,0
2018-06-10T00:55:32.912Z,0
2018-06-10T00:56:13.436Z,0
2018-06-10T00:56:53.939Z,0
2018-06-10T00:57:34.451Z,0
2018-06-10T00:58:14.904Z,0
2018-06-10T00:58:55.436Z,0
2018-06-10T00:59:35.895Z,0
2018-06-10T01:00:16.397Z,0
2018-06-10T01:00:56.890Z,0
2018-06-10T01:01:37.367Z,0
2018-06-10T01:02:17.848Z,0
2018-06-10T01:02:58.345Z,0
2018-06-10T01:03:38.872Z,0
2018-06-10T01:04:19.359Z,0
2018-06-10T01:04:59.855Z,0
2018-06-10T01:05:40.753Z,0
2018-06-10T01:06:21.255Z,0
2018-06-10T01:07:01.782Z,0
2018-06-10T01:07:42.284Z,0
2018-06-10T01:08:22.755Z,0
2018-06-10T01:09:03.301Z,0
2018-06-10T01:09:43.745Z,0
2018-06-10T01:10:24.256Z,0
2018-06-10T01:11:04.751Z,0
2018-06-10T01:11:45.256Z,0
2018-06-10T01:12:25.831Z,0
2018-06-10T01:13:06.232Z,0
2018-06-10T01:13:46.740Z,0
2018-06-10T01:14:27.189Z,0
2018-06-10T01:15:07.703Z,0
2018-06-10T01:15:48.189Z,0
2018-06-10T01:16:28.654Z,0
2018-06-10T01:17:09.107Z,0
2018-06-10T01:17:49.616Z,0
2018-06-10T01:18:30.132Z,0
2018-06-10T01:19:10.653Z,0
2018-06-10T01:19:51.121Z,0
2018-06-10T01:20:31.579Z,0
2018-06-10T01:21:12.110Z,0
2018-06-10T01:21:52.594Z,0
2018-06-10T01:22:33.133Z,0
2018-06-10T01:23:13.562Z,0
2018-06-10T01:23:54.084Z,0
2018-06-10T01:24:34.603Z,0
2018-06-10T01:25:15.067Z,0
2018-06-10T01:25:55.560Z,0
2018-06-10T01:26:36.046Z,0
2018-06-10T01:27:16.585Z,0
2018-06-10T01:27:57.071Z,0
2018-06-10T01:28:37.588Z,0
2018-06-10T01:29:18.099Z,0
2018-06-10T01:29:58.622Z,0
2018-06-10T01:30:39.075Z,0
2018-06-10T01:31:19.599Z,0
2018-06-10T01:32:00.120Z,0
2018-06-10T01:32:40.595Z,0
2018-06-10T01:33:21.100Z,0
2018-06-10T01:34:01.638Z,0
2018-06-10T01:34:42.105Z,0
2018-06-10T01:35:22.605Z,0
2018-06-10T01:36:03.125Z,0
2018-06-10T01:36:43.572Z,0
2018-06-10T01:37:24.080Z,0
2018-06-10T01:38:04.564Z,0
2018-06-10T01:38:45.113Z,0
2018-06-10T01:39:25.629Z,0
2018-06-10T01:40:06.094Z,0
2018-06-10T01:40:46.619Z,0
2018-06-10T01:41:27.154Z,0
2018-06-10T01:42:07.653Z,0
2018-06-10T01:42:48.276Z,0
2018-06-10T01:43:28.734Z,0
2018-06-10T01:44:09.256Z,0
2018-06-10T01:44:49.714Z,0
2018-06-10T01:45:30.206Z,0
2018-06-10T01:46:10.672Z,0
2018-06-10T01:46:51.167Z,0
2018-06-10T01:47:31.658Z,0
2018-06-10T01:48:12.126Z,0
2018-06-10T01:48:52.643Z,0
2018-06-10T01:49:33.181Z,0
2018-06-10T01:50:13.640Z,0
2018-06-10T01:50:54.185Z,0
2018-06-10T01:51:34.668Z,0
2018-06-10T01:52:15.146Z,0
2018-06-10T01:52:55.641Z,0
2018-06-10T01:53:36.160Z,0
2018-06-10T01:54:16.643Z,0
2018-06-10T01:54:57.182Z,0
2018-06-10T01:55:38.617Z,0
2018-06-10T01:56:19.097Z,0
2018-06-10T01:56:59.659Z,0
2018-06-10T01:57:40.107Z,0
2018-06-10T01:58:20.572Z,0
2018-06-10T01:59:01.165Z,0
2018-06-10T01:59:41.627Z,0
2018-06-10T02:00:22.097Z,0
2018-06-10T02:01:02.588Z,0
2018-06-10T02:01:43.693Z,0
2018-06-10T02:02:24.238Z,0
2018-06-10T02:03:04.692Z,0
2018-06-10T02:03:45.201Z,0
2018-06-10T02:04:25.731Z,0
2018-06-10T02:05:06.181Z,0
2018-06-10T02:05:46.695Z,0
2018-06-10T02:06:27.174Z,0
2018-06-10T02:07:07.750Z,0
2018-06-10T02:07:48.230Z,0
2018-06-10T02:08:28.846Z,0
2018-06-10T02:09:09.327Z,0
2018-06-10T02:09:49.853Z,0
2018-06-10T02:10:30.334Z,0
2018-06-10T02:11:10.804Z,0
2018-06-10T02:11:51.279Z,0
2018-06-10T02:12:31.789Z,0
2018-06-10T02:13:12.228Z,0
2018-06-10T02:13:52.744Z,0
2018-06-10T02:14:33.285Z,0
2018-06-10T02:15:14.010Z,0
2018-06-10T02:15:54.336Z,0
2018-06-10T02:16:34.934Z,0
2018-06-10T02:17:15.413Z,0
2018-06-10T02:17:55.849Z,0
2018-06-10T02:18:36.364Z,0
2018-06-10T02:19:16.889Z,0
2018-06-10T02:19:57.387Z,0
2018-06-10T02:20:37.877Z,0
2018-06-10T02:21:18.344Z,0
2018-06-10T02:21:58.837Z,0
2018-06-10T02:22:39.440Z,0
2018-06-10T02:23:19.914Z,0
2018-06-10T02:24:00.381Z,0
2018-06-10T02:24:40.886Z,0
2018-06-10T02:25:21.385Z,0
2018-06-10T02:26:01.838Z,0
2018-06-10T02:26:42.355Z,0
2018-06-10T02:27:23.042Z,0
2018-06-10T02:28:03.568Z,0
2018-06-10T02:28:44.085Z,0
2018-06-10T02:29:24.582Z,0
2018-06-10T02:30:05.157Z,0
2018-06-10T02:30:45.707Z,0
2018-06-10T02:31:26.125Z,0
2018-06-10T02:32:06.656Z,0
2018-06-10T02:32:47.162Z,0
2018-06-10T02:33:27.730Z,0
2018-06-10T02:34:08.323Z,0
2018-06-10T02:34:48.781Z,0
2018-06-10T02:35:29.289Z,0
2018-06-10T02:36:09.784Z,0
2018-06-10T02:36:50.264Z,0
2018-06-10T02:37:30.784Z,0
2018-06-10T02:38:11.324Z,0
2018-06-10T02:38:51.765Z,0
2018-06-10T02:39:32.283Z,0
2018-06-10T02:40:12.715Z,0
2018-06-10T02:40:53.224Z,0
2018-06-10T02:41:33.843Z,0
2018-06-10T02:42:14.448Z,0
2018-06-10T02:42:54.931Z,0
2018-06-10T02:43:35.492Z,4
2018-06-10T02:44:15.968Z,4
2018-06-10T02:44:56.481Z,4
2018-06-10T02:45:36.913Z,4
2018-06-10T02:46:17.426Z,4
2018-06-10T02:46:57.941Z,0
2018-06-10T02:47:38.412Z,0
2018-06-10T02:48:18.967Z,4
2018-06-10T02:48:59.453Z,4
2018-06-10T02:49:39.928Z,4
2018-06-10T02:50:20.456Z,4
2018-06-10T02:51:00.912Z,4
2018-06-10T02:51:41.411Z,4
2018-06-10T02:52:21.918Z,4
2018-06-10T02:53:02.386Z,8
2018-06-10T02:53:42.847Z,4
2018-06-10T02:54:23.370Z,4
2018-06-10T02:55:03.831Z,8
2018-06-10T02:55:44.315Z,4
2018-06-10T02:56:24.833Z,8
2018-06-10T02:57:05.324Z,8
2018-06-10T02:57:45.839Z,12
2018-06-10T02:58:26.266Z,8
2018-06-10T02:59:06.745Z,8
2018-06-10T02:59:47.323Z,16
2018-06-10T03:00:27.767Z,16
2018-06-10T03:01:08.324Z,16
2018-06-10T03:01:48.796Z,20
2018-06-10T03:02:29.566Z,20
2018-06-10T03:03:10.028Z,24
2018-06-10T03:03:50.526Z,24
2018-06-10T03:04:30.972Z,24
2018-06-10T03:05:11.654Z,24
2018-06-10T03:05:52.091Z,28
2018-06-10T03:06:32.663Z,32
2018-06-10T03:07:13.140Z,32
2018-06-10T03:07:53.651Z,32
2018-06-10T03:08:34.304Z,36
2018-06-10T03:09:14.836Z,40
2018-06-10T03:09:55.318Z,40
2018-06-10T03:10:35.811Z,40
2018-06-10T03:11:16.444Z,44
2018-06-10T03:11:56.797Z,48
2018-06-10T03:12:37.249Z,48
2018-06-10T03:13:17.962Z,52
2018-06-10T03:13:58.318Z,56
2018-06-10T03:14:38.812Z,64
2018-06-10T03:15:19.337Z,68
2018-06-10T03:15:59.839Z,72
2018-06-10T03:16:40.379Z,76
2018-06-10T03:17:20.871Z,80
2018-06-10T03:18:01.436Z,84
2018-06-10T03:18:41.818Z,88
2018-06-10T03:19:22.346Z,96
2018-06-10T03:20:02.863Z,100
2018-06-10T03:20:43.387Z,104
2018-06-10T03:21:23.844Z,116
2018-06-10T03:22:04.342Z,124
2018-06-10T03:22:44.850Z,128
2018-06-10T03:23:25.311Z,136
2018-06-10T03:24:05.877Z,140
2018-06-10T03:24:46.303Z,152
2018-06-10T03:25:26.796Z,160
2018-06-10T03:26:07.313Z,168
2018-06-10T03:26:47.813Z,180
2018-06-10T03:27:28.246Z,188
2018-06-10T03:28:08.756Z,196
2018-06-10T03:28:49.285Z,204
2018-06-10T03:29:29.756Z,216
2018-06-10T03:30:10.503Z,228
2018-06-10T03:30:50.965Z,236
2018-06-10T03:31:31.487Z,252
2018-06-10T03:32:12.007Z,260
2018-06-10T03:32:52.507Z,280
2018-06-10T03:33:33.002Z,300
2018-06-10T03:34:13.477Z,316
2018-06-10T03:34:53.976Z,336
2018-06-10T03:35:34.607Z,360
2018-06-10T03:36:14.986Z,380
2018-06-10T03:36:55.493Z,400
2018-06-10T03:37:36.090Z,424
2018-06-10T03:38:16.548Z,448
2018-06-10T03:38:57.005Z,472
2018-06-10T03:39:37.535Z,504
2018-06-10T03:40:17.999Z,532
2018-06-10T03:40:58.507Z,568
2018-06-10T03:41:39.226Z,596
2018-06-10T03:42:19.970Z,632
2018-06-10T03:43:00.529Z,656
2018-06-10T03:43:40.998Z,680
2018-06-10T03:44:21.511Z,700
2018-06-10T03:45:01.997Z,724
2018-06-10T03:45:42.501Z,744
2018-06-10T03:46:22.947Z,768
2018-06-10T03:47:03.446Z,788
2018-06-10T03:47:43.923Z,816
2018-06-10T03:48:24.537Z,836
2018-06-10T03:49:05.044Z,864
2018-06-10T03:49:45.525Z,896
2018-06-10T03:50:26.045Z,932
2018-06-10T03:51:06.480Z,968
2018-06-10T03:51:47.000Z,1008
2018-06-10T03:52:27.482Z,1044
2018-06-10T03:53:07.989Z,1080
2018-06-10T03:53:48.485Z,1124
2018-06-10T03:54:29.009Z,1156
2018-06-10T03:55:09.545Z,1192
2018-06-10T03:55:50.205Z,1228
2018-06-10T03:56:30.603Z,1260
2018-06-10T03:57:11.121Z,1296
2018-06-10T03:57:51.608Z,1320
2018-06-10T03:58:32.133Z,1348
2018-06-10T03:59:12.598Z,1384
2018-06-10T03:59:53.134Z,1428
2018-06-10T04:00:33.627Z,1480
2018-06-10T04:01:14.081Z,1540
2018-06-10T04:01:54.628Z,1600
2018-06-10T04:02:35.073Z,1660
2018-06-10T04:03:15.581Z,1732
2018-06-10T04:03:56.075Z,1792
2018-06-10T04:04:36.594Z,1852
2018-06-10T04:05:17.202Z,1908
2018-06-10T04:05:57.723Z,1964
2018-06-10T04:06:38.211Z,2020
2018-06-10T04:07:18.723Z,2076
2018-06-10T04:07:59.272Z,2144
2018-06-10T04:08:39.721Z,2208
2018-06-10T04:09:20.222Z,2240
2018-06-10T04:10:00.696Z,2272
2018-06-10T04:10:41.170Z,2300
2018-06-10T04:11:21.674Z,2328
2018-06-10T04:12:02.204Z,2360
2018-06-10T04:12:42.682Z,2396
2018-06-10T04:13:23.178Z,2436
2018-06-10T04:14:03.711Z,2476
2018-06-10T04:14:44.212Z,2508
2018-06-10T04:15:24.692Z,2544
2018-06-10T04:16:05.258Z,2580
2018-06-10T04:16:45.762Z,2612
2018-06-10T04:17:26.228Z,2656
2018-06-10T04:18:06.721Z,2696
2018-06-10T04:18:47.211Z,2760
2018-06-10T04:19:27.740Z,2828
2018-06-10T04:20:08.225Z,2912
2018-06-10T04:20:48.732Z,2988
2018-06-10T04:21:29.241Z,3072
2018-06-10T04:22:09.750Z,3148
2018-06-10T04:22:50.232Z,3224
2018-06-10T04:23:30.775Z,3300
2018-06-10T04:24:11.288Z,3368
2018-06-10T04:24:51.772Z,3420
2018-06-10T04:25:32.296Z,3464
2018-06-10T04:26:12.785Z,3500
2018-06-10T04:26:53.334Z,3528
2018-06-10T04:27:33.811Z,3568
2018-06-10T04:28:14.291Z,3588
2018-06-10T04:28:54.785Z,3624
2018-06-10T04:31:07.641Z,3788
2018-06-10T04:31:48.142Z,3812
2018-06-10T04:32:28.632Z,3828
2018-06-10T04:33:09.124Z,3856
2018-06-10T04:33:49.590Z,3904
2018-06-10T04:34:30.115Z,3984
2018-06-10T04:35:10.595Z,4060
2018-06-10T04:35:51.105Z,4132
2018-06-10T04:36:31.575Z,4152
2018-06-10T04:37:12.126Z,4212
2018-06-10T04:37:52.998Z,4372
2018-06-10T04:38:33.470Z,4752
2018-06-10T04:39:14.020Z,5156
2018-06-10T04:39:54.509Z,5528
2018-06-10T04:40:34.995Z,5660
2018-06-10T04:41:15.521Z,5540
2018-06-10T04:41:56.015Z,5260
2018-06-10T04:42:36.504Z,5164
2018-06-10T04:43:16.975Z,5080
2018-06-10T04:43:57.503Z,4948
2018-06-10T04:44:37.995Z,4856
2018-06-10T04:45:18.520Z,4860
2018-06-10T04:45:59.046Z,4912
2018-06-10T04:46:39.458Z,4940
2018-06-10T04:47:20.020Z,4980
2018-06-10T04:48:00.488Z,5020
2018-06-10T04:48:40.936Z,5096
2018-06-10T04:49:21.426Z,5156
2018-06-10T04:50:01.934Z,5192
2018-06-10T04:50:42.399Z,5264
2018-06-10T04:51:22.952Z,5476
2018-06-10T04:52:03.410Z,6196
2018-06-10T04:52:43.980Z,6768
2018-06-10T04:53:24.433Z,6812
2018-06-10T04:54:05.142Z,6448
2018-06-10T04:54:45.488Z,5968
2018-06-10T04:55:26.002Z,5476
2018-06-10T04:56:06.514Z,5372
2018-06-10T04:56:46.972Z,5392
2018-06-10T04:57:27.541Z,5532
2018-06-10T04:58:08.018Z,5676
2018-06-10T04:58:48.504Z,5908
2018-06-10T04:59:28.952Z,6236
2018-06-10T05:00:09.458Z,6264
2018-06-10T05:00:49.972Z,5968
2018-06-10T05:01:30.468Z,5940
2018-06-10T05:02:11.053Z,5920
2018-06-10T05:02:51.504Z,5972
2018-06-10T05:03:31.998Z,6140
2018-06-10T05:04:12.481Z,6292
2018-06-10T05:04:52.936Z,6196
2018-06-10T05:05:33.456Z,6008
2018-06-10T05:06:13.956Z,5872
2018-06-10T05:06:54.705Z,5956
2018-06-10T05:07:35.046Z,6072
2018-06-10T05:08:15.525Z,6648
2018-06-10T05:08:56.165Z,7316
2018-06-10T05:09:36.722Z,6772
2018-06-10T05:10:17.557Z,6768
2018-06-10T05:10:58.031Z,6184
2018-06-10T05:11:38.472Z,6212
2018-06-10T05:12:19.008Z,6584
2018-06-10T05:12:59.482Z,7328
2018-06-10T05:13:39.981Z,8380
2018-06-10T05:14:20.456Z,7968
2018-06-10T05:15:01.075Z,7332
2018-06-10T05:15:41.699Z,6792
2018-06-10T05:16:22.115Z,6616
2018-06-10T05:17:02.739Z,6932
2018-06-10T05:17:43.227Z,7488
2018-06-10T05:18:23.718Z,7564
2018-06-10T05:19:04.172Z,7320
2018-06-10T05:19:44.953Z,7120
2018-06-10T05:20:25.421Z,7280
2018-06-10T05:21:05.955Z,7420
2018-06-10T05:21:46.413Z,7208
2018-06-10T05:22:26.939Z,7360
2018-06-10T05:23:07.387Z,7200
2018-06-10T05:23:47.867Z,7224
2018-06-10T05:24:28.371Z,7236
2018-06-10T05:25:09.006Z,7124
2018-06-10T05:25:49.400Z,7084
2018-06-10T05:26:30.184Z,7176
2018-06-10T05:27:10.711Z,7256
2018-06-10T05:27:51.257Z,7368
2018-06-10T05:28:31.701Z,7836
2018-06-10T05:29:12.273Z,7804
2018-06-10T05:29:53.004Z,7804
2018-06-10T05:30:33.487Z,7516
2018-06-10T05:31:14.007Z,7480
2018-06-10T05:31:54.499Z,7372
2018-06-10T05:32:34.972Z,7260
2018-06-10T05:33:15.473Z,7200
2018-06-10T05:33:56.016Z,7200
2018-06-10T05:34:36.733Z,7176
2018-06-10T05:35:17.221Z,7196
2018-06-10T05:35:57.747Z,7284
2018-06-10T05:36:38.434Z,7324
2018-06-10T05:37:18.949Z,7332
2018-06-10T05:37:59.439Z,7276
2018-06-10T05:38:39.924Z,7272
2018-06-10T05:39:20.568Z,7276
2018-06-10T05:40:00.979Z,7244
2018-06-10T05:40:41.448Z,7208
2018-06-10T05:41:21.944Z,7168
2018-06-10T05:42:02.490Z,7192
2018-06-10T05:42:42.880Z,7212
2018-06-10T05:43:23.428Z,7232
2018-06-10T05:44:03.927Z,7232
2018-06-10T05:44:44.392Z,7220
2018-06-10T05:45:24.913Z,7244
2018-06-10T05:46:05.419Z,7332
2018-06-10T05:46:46.097Z,7368
2018-06-10T05:47:26.599Z,7516
2018-06-10T05:48:07.089Z,7416
2018-06-10T05:48:47.582Z,7696
2018-06-10T05:49:28.141Z,8136
2018-06-10T05:50:08.748Z,8028
2018-06-10T05:50:49.257Z,7864
2018-06-10T05:51:29.723Z,7740
2018-06-10T05:52:10.280Z,7844
2018-06-10T05:52:50.732Z,9440
2018-06-10T05:53:31.270Z,10284
2018-06-10T05:54:11.780Z,11512
2018-06-10T05:54:52.252Z,14216
2018-06-10T05:55:32.786Z,14392
2018-06-10T05:56:13.331Z,14124
2018-06-10T05:56:53.984Z,13712
2018-06-10T05:57:34.460Z,14040
2018-06-10T05:58:14.980Z,13664
2018-06-10T05:58:55.487Z,12468
2018-06-10T05:59:36.013Z,12408
2018-06-10T06:00:16.693Z,12268
2018-06-10T06:00:57.044Z,11968
2018-06-10T06:01:37.568Z,11428
2018-06-10T06:02:18.277Z,10908
2018-06-10T06:02:58.675Z,10676
2018-06-10T06:03:39.143Z,10512
2018-06-10T06:04:19.674Z,10436
2018-06-10T06:05:00.174Z,10380
2018-06-10T06:05:40.683Z,10348
2018-06-10T06:06:21.170Z,10392
2018-06-10T06:07:01.641Z,10436
2018-06-10T06:07:42.212Z,10488
2018-06-10T06:08:22.616Z,10552
2018-06-10T06:09:03.106Z,10648
2018-06-10T06:09:43.617Z,10628
2018-06-10T06:10:24.106Z,10668
2018-06-10T06:11:04.576Z,10680
2018-06-10T06:11:45.078Z,10668
2018-06-10T06:12:25.539Z,10600
2018-06-10T06:13:06.114Z,10468
2018-06-10T06:13:46.645Z,10468
2018-06-10T06:14:27.159Z,10548
2018-06-10T06:15:07.638Z,10620
2018-06-10T06:15:48.157Z,10588
2018-06-10T06:16:28.626Z,10580
2018-06-10T06:17:09.107Z,10548
2018-06-10T06:17:49.653Z,10564
2018-06-10T06:18:33.690Z,10576
2018-06-10T06:19:14.997Z,10508
2018-06-10T06:19:55.411Z,10448
2018-06-10T06:20:35.903Z,10428
2018-06-10T06:21:16.468Z,10392
2018-06-10T06:21:56.941Z,10372
2018-06-10T06:22:37.431Z,10364
2018-06-10T06:23:18.081Z,10304
2018-06-10T06:23:58.562Z,10260
2018-06-10T06:24:39.080Z,10288
2018-06-10T06:25:19.563Z,10284
2018-06-10T06:26:00.171Z,10320
2018-06-10T06:26:40.619Z,10260
2018-06-10T06:27:21.107Z,10256
2018-06-10T06:28:01.597Z,9924
2018-06-10T06:28:42.140Z,9588
2018-06-10T06:29:22.638Z,9784
2018-06-10T06:30:03.167Z,9756
2018-06-10T06:30:43.673Z,9788
2018-06-10T06:31:24.139Z,9088
2018-06-10T06:32:04.611Z,9728
2018-06-10T06:32:45.184Z,9616
2018-06-10T06:33:25.715Z,9536
2018-06-10T06:34:06.211Z,9764
2018-06-10T06:34:46.757Z,9712
2018-06-10T06:35:27.212Z,9784
2018-06-10T06:36:07.880Z,9712
2018-06-10T06:36:48.297Z,9636
2018-06-10T06:37:28.732Z,9236
2018-06-10T06:38:09.214Z,9528
2018-06-10T06:38:49.681Z,9604
2018-06-10T06:39:30.172Z,9460
2018-06-10T06:40:10.646Z,9444
2018-06-10T06:40:52.058Z,9552
2018-06-10T06:41:31.751Z,9500
2018-06-10T06:42:12.280Z,9500
2018-06-10T06:42:52.764Z,9464
2018-06-10T06:43:33.235Z,9432
2018-06-10T06:44:13.974Z,9516
2018-06-10T06:44:54.502Z,9416
2018-06-10T06:45:34.963Z,9380
2018-06-10T06:46:15.509Z,9416
2018-06-10T06:46:56.037Z,9388
2018-06-10T06:47:36.517Z,9352
2018-06-10T06:48:17.022Z,9300
2018-06-10T06:48:57.559Z,9380
2018-06-10T06:49:38.001Z,9664
2018-06-10T06:50:18.524Z,9520
2018-06-10T06:50:59.052Z,9548
2018-06-10T06:51:39.550Z,9508
2018-06-10T06:52:20.052Z,9480
2018-06-10T06:53:00.594Z,9524
2018-06-10T06:53:41.109Z,9348
2018-06-10T06:54:21.632Z,9264
2018-06-10T06:55:02.086Z,8992
2018-06-10T06:55:42.802Z,9196
2018-06-10T06:56:23.315Z,9196
2018-06-10T06:57:03.795Z,9056
2018-06-10T06:57:44.265Z,8984
2018-06-10T06:58:24.745Z,9008
2018-06-10T06:59:05.343Z,8900
2018-06-10T06:59:45.814Z,8960
2018-06-10T07:00:26.289Z,8960
2018-06-10T07:01:06.831Z,9036
2018-06-10T07:01:47.320Z,8896
2018-06-10T07:02:27.861Z,8576
2018-06-10T07:03:08.380Z,8396
2018-06-10T07:03:48.852Z,8536
2018-06-10T07:04:29.334Z,8624
2018-06-10T07:05:09.853Z,8692
2018-06-10T07:05:50.383Z,8372
2018-06-10T07:06:30.881Z,8020
2018-06-10T07:07:11.381Z,8256
2018-06-10T07:07:52.138Z,7804
2018-06-10T07:08:32.648Z,7760
2018-06-10T07:09:13.062Z,8292
2018-06-10T07:09:53.564Z,8252
2018-06-10T07:10:34.082Z,7964
2018-06-10T07:11:14.590Z,7612
2018-06-10T07:11:55.146Z,7680
2018-06-10T07:12:35.634Z,7888
2018-06-10T07:13:16.547Z,8256
2018-06-10T07:13:57.113Z,8484
2018-06-10T07:14:37.703Z,8568
2018-06-10T07:15:18.460Z,8780
2018-06-10T07:15:59.176Z,9116
2018-06-10T07:16:39.511Z,9356
2018-06-10T07:17:20.021Z,9436
2018-06-10T07:18:00.514Z,9468
2018-06-10T07:18:41.017Z,9392
2018-06-10T07:19:21.523Z,9524
2018-06-10T07:20:02.061Z,9776
2018-06-10T07:20:42.554Z,9624
2018-06-10T07:21:23.010Z,9532
2018-06-10T07:22:03.511Z,9348
2018-06-10T07:22:44.062Z,9496
2018-06-10T07:23:24.586Z,9304
2018-06-10T07:24:05.081Z,8300
2018-06-10T07:24:45.583Z,9404
2018-06-10T07:25:26.087Z,9288
2018-06-10T07:26:06.561Z,8420
2018-06-10T07:26:47.096Z,9268
2018-06-10T07:27:27.978Z,8056
2018-06-10T07:28:09.588Z,9168
2018-06-10T07:28:50.011Z,8688
2018-06-10T07:29:30.567Z,9416
2018-06-10T07:30:11.096Z,9508
2018-06-10T07:30:51.550Z,6456
2018-06-10T07:31:32.010Z,8400
2018-06-10T07:32:13.160Z,8512
2018-06-10T07:32:53.519Z,6996
2018-06-10T07:33:34.380Z,8928
2018-06-10T07:34:16.129Z,7624
2018-06-10T07:34:56.837Z,8396
2018-06-10T07:35:36.837Z,8328
2018-06-10T07:36:17.528Z,8332
2018-06-10T07:36:58.078Z,8328
2018-06-10T07:37:38.611Z,7996
2018-06-10T07:38:19.087Z,8048
2018-06-10T07:38:59.581Z,8008
2018-06-10T07:39:40.145Z,7720
2018-06-10T07:40:21.336Z,6064
2018-06-10T07:41:02.516Z,7824
2018-06-10T07:41:43.089Z,8084
2018-06-10T07:42:23.584Z,8068
2018-06-10T07:43:04.142Z,8188
2018-06-10T07:43:44.622Z,8184
2018-06-10T07:44:25.154Z,8216
2018-06-10T07:45:05.649Z,8292
2018-06-10T07:45:46.118Z,8252
2018-06-10T07:46:27.265Z,8108
2018-06-10T07:47:07.805Z,7996
2018-06-10T07:47:48.745Z,7868
2018-06-10T07:48:29.411Z,7720
2018-06-10T07:49:09.959Z,7784
2018-06-10T07:49:50.855Z,7836
2018-06-10T07:51:53.207Z,7976
2018-06-10T07:52:33.962Z,8652
2018-06-10T07:53:14.390Z,8408
2018-06-10T07:53:55.689Z,7620
2018-06-10T07:54:36.136Z,7584
2018-06-10T07:55:16.849Z,6044
2018-06-10T07:55:58.853Z,5520
2018-06-10T07:58:38.950Z,7972
2018-06-10T07:59:19.709Z,7920
2018-06-10T08:00:00.262Z,7884
2018-06-10T08:00:41.487Z,7960
2018-06-10T08:01:21.804Z,7744
2018-06-10T08:02:07.220Z,7432
2018-06-10T08:02:48.538Z,7104
2018-06-10T08:03:29.033Z,6504
2018-06-10T08:04:10.153Z,6240
2018-06-10T08:04:50.721Z,5136
2018-06-10T08:05:31.265Z,6944
2018-06-10T08:06:12.785Z,5500
2018-06-10T08:06:55.665Z,6312
2018-06-10T08:07:37.231Z,6728
2018-06-10T08:08:17.765Z,6736
2018-06-10T08:08:59.260Z,7360
2018-06-10T08:09:41.614Z,7176
2018-06-10T08:10:25.991Z,6952
2018-06-10T08:11:05.850Z,6752
2018-06-10T08:11:46.330Z,6816
2018-06-10T08:12:26.843Z,7032
2018-06-10T08:13:07.342Z,7060
2018-06-10T08:13:47.872Z,6972
2018-06-10T08:14:28.480Z,6920
2018-06-10T08:15:08.850Z,6784
2018-06-10T08:15:49.908Z,6652
2018-06-10T08:16:30.417Z,6512
2018-06-10T08:17:10.887Z,6452
2018-06-10T08:17:51.765Z,6560
2018-06-10T08:18:32.269Z,6592
2018-06-10T08:19:13.003Z,6552
2018-06-10T08:19:54.555Z,6488
2018-06-10T08:20:35.697Z,6308
2018-06-10T08:21:16.337Z,6128
2018-06-10T08:21:56.895Z,6116
2018-06-10T08:22:39.157Z,6108
2018-06-10T08:23:20.206Z,6108
2018-06-10T08:24:01.530Z,6124
2018-06-10T08:24:41.133Z,6084
2018-06-10T08:25:21.687Z,6072
2018-06-10T08:26:02.456Z,5792
2018-06-10T08:26:43.221Z,5832
2018-06-10T08:27:24.445Z,4640
2018-06-10T08:28:06.408Z,5676
2018-06-10T08:28:50.682Z,5664
2018-06-10T08:29:32.900Z,5724
2018-06-10T08:30:16.779Z,5688
2018-06-10T08:30:57.706Z,5456
2018-06-10T08:31:38.655Z,5976
2018-06-10T08:32:19.698Z,6044
2018-06-10T08:33:02.654Z,5996
2018-06-10T08:33:43.962Z,5964
2018-06-10T08:34:24.681Z,6012
2018-06-10T08:35:05.604Z,6228
2018-06-10T08:35:45.866Z,6284
2018-06-10T08:36:28.017Z,6496
2018-06-10T08:37:10.931Z,6392
2018-06-10T08:37:52.474Z,5992
2018-06-10T08:38:33.215Z,5824
2018-06-10T08:39:14.665Z,5904
2018-06-10T08:39:55.850Z,6144
2018-06-10T08:40:37.338Z,6020
2018-06-10T08:41:18.590Z,5736
2018-06-10T08:42:02.551Z,5452
2018-06-10T08:42:44.227Z,5256
2018-06-10T08:43:26.492Z,5156
2018-06-10T08:44:07.161Z,4576
2018-06-10T08:44:48.829Z,5064
2018-06-10T08:45:30.594Z,4920
2018-06-10T08:46:11.161Z,4436
2018-06-10T08:46:51.639Z,4476
2018-06-10T08:47:32.576Z,4872
2018-06-10T08:48:12.869Z,4896
2018-06-10T08:48:53.368Z,4900
2018-06-10T08:49:33.908Z,4744
2018-06-10T08:50:14.450Z,4668
2018-06-10T08:50:54.969Z,4628
2018-06-10T08:51:35.491Z,4592
2018-06-10T08:52:15.989Z,4560
2018-06-10T08:52:57.057Z,4564
2018-06-10T08:53:37.589Z,4580
2018-06-10T08:54:18.041Z,4368
2018-06-10T08:54:58.579Z,4200
2018-06-10T08:55:39.066Z,4424
2018-06-10T08:56:19.624Z,4592
2018-06-10T08:57:00.220Z,4784
2018-06-10T08:57:41.002Z,4748
2018-06-10T08:58:21.504Z,4760
2018-06-10T08:59:01.985Z,4748
2018-06-10T08:59:42.704Z,4716
2018-06-10T09:00:23.237Z,4640
2018-06-10T09:01:03.772Z,4636
2018-06-10T09:01:44.197Z,4664
2018-06-10T09:02:24.674Z,4700
2018-06-10T09:03:05.198Z,4684
2018-06-10T09:03:45.664Z,4664
2018-06-10T09:04:26.302Z,4696
2018-06-10T09:05:06.725Z,4616
2018-06-10T09:05:47.477Z,4620
2018-06-10T09:06:28.011Z,4668
2018-06-10T09:07:08.720Z,4636
2018-06-10T09:07:49.150Z,4564
2018-06-10T09:08:30.093Z,4708
2018-06-10T09:09:10.529Z,4740
2018-06-10T09:09:51.101Z,4756
2018-06-10T09:10:31.559Z,4728
2018-06-10T09:11:12.394Z,4708
2018-06-10T09:11:52.981Z,4740
2018-06-10T09:12:33.419Z,4780
2018-06-10T09:13:13.930Z,4808
2018-06-10T09:13:54.512Z,4796
2018-06-10T09:14:35.456Z,4760
2018-06-10T09:15:16.003Z,4736
2018-06-10T09:15:56.512Z,4704
2018-06-10T09:16:40.247Z,4692
2018-06-10T09:17:20.994Z,4680
2018-06-10T09:18:01.589Z,4696
2018-06-10T09:18:42.063Z,4680
2018-06-10T09:19:22.527Z,4732
2018-06-10T09:20:03.196Z,4808
2018-06-10T09:20:43.754Z,4828
2018-06-10T09:21:27.639Z,4700
2018-06-10T09:22:13.538Z,4824
2018-06-10T09:22:54.140Z,4820
2018-06-10T09:23:34.711Z,4748
2018-06-10T09:24:15.255Z,4648